Avrameni, Romania

10:42 PM EEST on October 25, 2014 (GMT +0300)
Balti | Change Station
CLOSE
Current Station
Airport
Location: BALTI INTL ARPT,
Elevation: 758 ft
Nearby Weather Stations

Elev 758 ft 47.84 °N, 27.78 °E | Updated 12 minutes ago

Clear
Clear
25 °F
Feels Like 15 °F
N
10
Wind Variable Wind from Variable

Today
High -- | Low -- °F
--% Chance of Precip.
Yesterday
High -- | Low -- °F
Precip. -- in
7:46 AM 6:05 PM
Waxing Crescent, 4% visible
Pressure 30.51 in
Visibility 6.2 miles
Clouds
Windchill 15 °F
Dew Point 21 °F
Humidity 86%
Rainfall 0.00 in
Snow Depth Not available.
UV Not available.
Pollen Not available.
Air Quality Not available.
Flu Activity Not available.
METAR LUBL 251930Z AUTO VRB09KT 9999 NCD M04/M06 Q1033

More Conditions Fewer Conditions

Pressure 30.51 in
Visibility 6.2 miles
Clouds
Windchill 15 °F
Dew Point 21 °F
Humidity 86%
Rainfall 0.00 in
Snow Depth Not available.
UV Not available.
Pollen Not available.
Air Quality Not available.
Flu Activity Not available.
METAR LUBL 251930Z AUTO VRB09KT 9999 NCD M04/M06 Q1033

More Conditions Fewer Conditions

10-Day Weather Forecast

Almanac

Astronomy

Oct. 25, 2014 Rise Set
Actual Time 7:46 AM EEST 6:05 PM EEST
Civil Twilight 7:14 AM EEST 6:37 PM EEST
Nautical Twilight 6:37 AM EEST 7:13 PM EEST
Astronomical Twilight 6:01 AM EEST 7:49 PM EEST
Moon 9:10 AM EEST 7:08 PM EEST
Length of Visible Light 11h 23m
Length of Day
10h 19m
Tomorrow will be 3m 15s shorter.
Waxing Crescent, 4% of the Moon is Illuminated
Today
Waxing Crescent
Oct 30
First Quarter
Nov 6
Full
Nov 14
Last Quarter
Nov 22
New

Today's Extremes

Country Highs Country Lows

Community

WunderPhotos

Upload Photos

1,764,972 photos uploaded!

Nearby

Snow Depth

Not available.

Earthquake Activity

City Distance Mag. Time & Date
No recent earthquake activity has been reported nearby.
Minimum magnitude displayed is 2.5.

Coastal Water Temperatures

Place Temperature
No Stations Reporting

Nearby Weather Stations